createdAt,value
2022-10-19T00:05:17.492Z,74.36
2022-10-19T00:13:40.828Z,74.27
2022-10-19T00:22:04.209Z,74.44
2022-10-19T00:30:26.942Z,74.26
2022-10-19T00:38:50.723Z,74.30
2022-10-19T00:47:14.021Z,74.63
2022-10-19T00:55:39.778Z,74.39
2022-10-19T01:04:03.791Z,74.49
2022-10-19T01:12:44.742Z,74.59
2022-10-19T01:21:19.828Z,74.56
2022-10-19T01:30:04.740Z,74.40
2022-10-19T01:38:40.981Z,74.48
2022-10-19T01:47:09.239Z,74.73
2022-10-19T01:55:33.702Z,74.77
2022-10-19T02:03:58.198Z,74.57
2022-10-19T02:12:21.768Z,74.67
2022-10-19T02:20:44.739Z,74.46
2022-10-19T02:29:12.238Z,74.52
2022-10-19T02:46:09.210Z,74.34
2022-10-19T02:54:31.980Z,74.67
2022-10-19T03:02:54.755Z,74.80
2022-10-19T03:11:17.405Z,74.73
2022-10-19T03:19:40.195Z,74.70
2022-10-19T03:28:03.463Z,74.85
2022-10-19T03:36:34.282Z,74.91
2022-10-19T03:44:56.886Z,74.93
2022-10-19T03:53:19.598Z,74.77
2022-10-19T04:01:46.483Z,74.93
2022-10-19T04:10:11.867Z,74.80
2022-10-19T04:18:35.222Z,74.99
2022-10-19T04:26:58.046Z,75.23
2022-10-19T04:35:20.714Z,75.06
2022-10-19T04:43:45.335Z,74.97
2022-10-19T04:52:08.323Z,75.09
2022-10-19T05:00:31.130Z,75.18
2022-10-19T05:08:54.378Z,75.01
2022-10-19T05:17:17.220Z,75.24
2022-10-19T05:25:39.959Z,75.35
2022-10-19T05:34:04.171Z,75.29
2022-10-19T05:42:27.023Z,75.16
2022-10-19T05:50:55.245Z,75.22
2022-10-19T05:59:20.528Z,75.49
2022-10-19T06:07:43.307Z,75.48
2022-10-19T06:16:07.498Z,75.49
2022-10-19T06:24:30.377Z,75.45
2022-10-19T06:32:53.552Z,75.62
2022-10-19T06:41:17.541Z,75.66
2022-10-19T06:49:40.281Z,75.63
2022-10-19T06:58:04.293Z,75.83
2022-10-19T07:06:29.093Z,75.98
2022-10-19T07:14:57.031Z,75.79
2022-10-19T07:23:19.959Z,75.94
2022-10-19T07:31:43.909Z,76.06
2022-10-19T07:40:07.795Z,75.93
2022-10-19T07:48:31.026Z,76.03
2022-10-19T07:56:55.907Z,76.02
2022-10-19T08:05:19.185Z,76.08
2022-10-19T08:13:43.721Z,76.02
2022-10-19T08:22:06.549Z,76.02
2022-10-19T08:30:29.286Z,76.02
2022-10-19T08:38:52.559Z,76.07
2022-10-19T08:47:17.427Z,76.33
2022-10-19T08:55:50.009Z,76.14
2022-10-19T09:04:36.629Z,76.04
2022-10-19T09:13:15.526Z,76.36
2022-10-19T09:21:47.783Z,76.31
2022-10-19T09:30:19.737Z,76.44
2022-10-19T09:38:42.644Z,76.20
2022-10-19T09:47:15.346Z,76.29
2022-10-19T09:55:43.155Z,76.29
2022-10-19T10:04:18.551Z,76.16
2022-10-19T10:12:44.019Z,76.08
2022-10-19T10:21:32.081Z,76.23
2022-10-19T10:38:44.967Z,76.18
2022-10-19T10:47:14.714Z,76.38
2022-10-19T10:55:42.321Z,76.44
2022-10-19T11:04:11.840Z,76.29
2022-10-19T11:12:41.547Z,76.31
2022-10-19T11:21:13.240Z,76.31
2022-10-19T11:29:35.879Z,76.08
2022-10-19T11:38:20.394Z,76.00
2022-10-19T11:46:56.747Z,75.85
2022-10-19T11:55:37.704Z,75.81
2022-10-19T12:04:19.088Z,75.94
2022-10-19T12:12:53.537Z,75.93
2022-10-19T12:21:33.725Z,75.88
2022-10-19T12:30:03.403Z,75.71
2022-10-19T12:39:00.173Z,76.00
2022-10-19T12:47:25.538Z,75.82
2022-10-19T12:56:02.307Z,76.00
2022-10-19T13:04:28.376Z,76.15
2022-10-19T13:12:51.899Z,76.08
2022-10-19T13:21:49.759Z,76.02
2022-10-19T13:30:35.788Z,76.01
2022-10-19T13:38:59.679Z,75.93
2022-10-19T13:56:25.930Z,75.94
2022-10-19T14:05:10.914Z,75.87
2022-10-19T14:13:33.610Z,75.70
2022-10-19T14:22:19.733Z,75.69
2022-10-19T14:30:43.759Z,75.89
2022-10-19T14:39:07.596Z,75.34
2022-10-19T14:47:30.668Z,75.30
2022-10-19T14:55:58.355Z,75.23
2022-10-19T15:04:25.441Z,75.11
2022-10-19T15:12:51.683Z,74.89
2022-10-19T15:21:19.359Z,74.81
2022-10-19T15:29:59.119Z,75.04
2022-10-19T15:38:26.874Z,74.77
2022-10-19T15:46:49.603Z,74.75
2022-10-19T15:55:14.741Z,74.57
2022-10-19T16:03:37.429Z,74.50
2022-10-19T16:12:00.203Z,74.71
2022-10-19T16:20:24.013Z,74.72
2022-10-19T16:28:48.575Z,74.73
2022-10-19T16:37:11.319Z,74.50
2022-10-19T16:45:34.233Z,74.66
2022-10-19T16:54:03.165Z,74.59
2022-10-19T17:02:27.143Z,74.70
2022-10-19T17:10:49.838Z,74.47
2022-10-19T17:19:12.692Z,74.50
2022-10-19T17:27:36.462Z,74.52
2022-10-19T17:36:08.313Z,74.59
2022-10-19T17:44:31.911Z,74.51
2022-10-19T17:52:56.960Z,74.41
2022-10-19T18:01:21.459Z,74.20
2022-10-19T18:09:44.151Z,74.23
2022-10-19T18:18:07.050Z,74.26
2022-10-19T18:26:31.990Z,74.11
2022-10-19T18:34:55.107Z,74.06
2022-10-19T18:43:17.861Z,73.93
2022-10-19T18:51:40.570Z,74.12
2022-10-19T19:00:04.363Z,74.11
2022-10-19T19:08:28.779Z,74.18
2022-10-19T19:16:51.787Z,74.04
2022-10-19T19:25:15.041Z,74.03
2022-10-19T19:33:39.223Z,73.95
2022-10-19T19:42:01.896Z,74.01
2022-10-19T19:50:24.814Z,74.03
2022-10-19T19:58:48.064Z,73.73
2022-10-19T20:07:10.804Z,73.76
2022-10-19T20:15:37.353Z,73.77
2022-10-19T20:24:01.474Z,73.79
2022-10-19T20:32:26.250Z,73.74
2022-10-19T20:40:49.068Z,73.78
2022-10-19T20:49:13.195Z,73.66
2022-10-19T20:57:35.921Z,73.85
2022-10-19T21:06:02.181Z,73.63
2022-10-19T21:14:29.236Z,73.85
2022-10-19T21:22:52.131Z,73.63
2022-10-19T21:31:16.824Z,73.62
2022-10-19T21:39:39.639Z,73.62
2022-10-19T21:48:02.367Z,73.66
2022-10-19T21:56:25.965Z,73.77
2022-10-19T22:04:48.660Z,73.55
2022-10-19T22:13:11.328Z,73.65
2022-10-19T22:21:35.365Z,73.48
2022-10-19T22:29:58.182Z,73.61
2022-10-19T22:38:20.873Z,73.70
2022-10-19T22:46:43.620Z,73.40
2022-10-19T22:55:07.419Z,73.50
2022-10-19T23:03:30.262Z,73.66
2022-10-19T23:11:53.164Z,73.55
2022-10-19T23:20:16.095Z,73.63
2022-10-19T23:28:43.182Z,73.40
2022-10-19T23:37:06.078Z,73.31
2022-10-19T23:45:28.809Z,73.62
2022-10-19T23:53:53.207Z,73.57
